createdAt,value
2023-03-01T00:01:56.424Z,30.30
2023-03-01T00:04:22.926Z,25.00
2023-03-01T00:06:49.435Z,31.77
2023-03-01T00:09:16.517Z,23.35
2023-03-01T00:11:43.211Z,28.58
2023-03-01T00:14:09.914Z,21.75
2023-03-01T00:16:40.988Z,23.77
2023-03-01T00:19:14.706Z,25.45
2023-03-01T00:21:41.578Z,32.88
2023-03-01T00:24:08.638Z,35.92
2023-03-01T00:26:35.181Z,32.70
2023-03-01T00:29:01.905Z,24.10
2023-03-01T00:31:30.208Z,30.65
2023-03-01T00:33:58.132Z,23.92
2023-03-01T00:36:25.902Z,30.10
2023-03-01T00:38:52.772Z,27.67
2023-03-01T00:41:23.629Z,29.13
2023-03-01T00:43:51.094Z,26.85
2023-03-01T00:46:19.066Z,24.58
2023-03-01T00:48:45.708Z,38.83
2023-03-01T00:51:13.572Z,27.55
2023-03-01T00:53:40.497Z,29.63
2023-03-01T00:56:07.613Z,26.35
2023-03-01T00:58:34.449Z,29.55
2023-03-01T01:01:01.177Z,24.63
2023-03-01T01:03:27.728Z,24.20
2023-03-01T01:05:54.784Z,26.88
2023-03-01T01:08:21.788Z,22.92
2023-03-01T01:10:48.643Z,29.95
2023-03-01T01:13:15.186Z,21.27
2023-03-01T01:15:41.815Z,33.63
2023-03-01T01:18:08.387Z,29.50
2023-03-01T01:20:36.055Z,34.65
2023-03-01T01:23:02.765Z,32.85
2023-03-01T01:25:29.354Z,33.17
2023-03-01T01:27:55.934Z,22.00
2023-03-01T01:30:22.395Z,33.95
2023-03-01T01:32:48.861Z,32.00
2023-03-01T01:35:15.583Z,28.90
2023-03-01T01:37:42.135Z,40.63
2023-03-01T01:40:10.471Z,28.15
2023-03-01T01:42:37.037Z,35.30
2023-03-01T01:45:22.797Z,24.77
2023-03-01T01:47:49.754Z,31.23
2023-03-01T01:50:18.588Z,32.70
2023-03-01T01:52:47.386Z,35.50
2023-03-01T01:55:21.869Z,33.10
2023-03-01T01:57:51.150Z,32.30
2023-03-01T02:00:19.255Z,34.55
2023-03-01T02:02:47.717Z,31.00
2023-03-01T02:05:27.084Z,30.90
2023-03-01T02:07:53.991Z,33.38
2023-03-01T02:10:22.455Z,48.97
2023-03-01T02:12:49.057Z,30.52
2023-03-01T02:15:15.695Z,33.72
2023-03-01T02:17:42.218Z,41.65
2023-03-01T02:20:17.644Z,34.75
2023-03-01T02:22:45.256Z,39.60
2023-03-01T02:25:21.118Z,35.08
2023-03-01T02:28:01.151Z,32.40
2023-03-01T02:30:28.429Z,39.17
2023-03-01T02:33:00.472Z,39.78
2023-03-01T02:35:27.408Z,32.53
2023-03-01T02:37:58.055Z,36.95
2023-03-01T02:40:24.831Z,41.33
2023-03-01T02:42:54.676Z,28.85
2023-03-01T02:45:21.222Z,34.88
2023-03-01T02:47:48.021Z,42.28
2023-03-01T02:50:29.813Z,35.58
2023-03-01T02:52:56.467Z,35.70
2023-03-01T02:55:23.518Z,32.75
2023-03-01T02:57:52.971Z,31.77
2023-03-01T03:00:20.955Z,30.67
2023-03-01T03:02:51.912Z,38.70
2023-03-01T03:05:20.931Z,33.72
2023-03-01T03:07:49.479Z,45.53
2023-03-01T03:10:24.329Z,35.05
2023-03-01T03:12:52.503Z,44.47
2023-03-01T03:15:18.981Z,43.03
2023-03-01T03:17:46.490Z,34.90
2023-03-01T03:20:14.011Z,39.25
2023-03-01T03:22:40.921Z,37.17
2023-03-01T03:25:11.349Z,41.97
2023-03-01T03:27:38.940Z,39.63
2023-03-01T03:30:09.931Z,36.33
2023-03-01T03:32:37.035Z,46.08
2023-03-01T03:35:10.306Z,50.70
2023-03-01T03:37:56.632Z,40.90
2023-03-01T03:40:23.443Z,44.08
2023-03-01T03:42:50.162Z,41.38
2023-03-01T03:45:17.566Z,39.92
2023-03-01T03:47:44.519Z,40.50
2023-03-01T03:50:15.768Z,40.97
2023-03-01T03:52:42.365Z,43.05
2023-03-01T03:55:10.577Z,54.13
2023-03-01T03:57:41.084Z,39.92
2023-03-01T04:00:14.559Z,49.55
2023-03-01T04:02:42.576Z,43.15
2023-03-01T04:05:10.117Z,52.97
2023-03-01T04:07:36.961Z,46.40
2023-03-01T04:10:04.110Z,34.47
2023-03-01T04:12:30.751Z,46.22
2023-03-01T04:14:57.325Z,44.05
2023-03-01T04:17:23.815Z,61.88
2023-03-01T04:19:50.518Z,49.33
2023-03-01T04:22:18.403Z,53.90
2023-03-01T04:24:45.432Z,43.35
2023-03-01T04:27:12.380Z,49.70
2023-03-01T04:29:38.952Z,44.03
2023-03-01T04:32:06.055Z,37.03
2023-03-01T04:34:32.649Z,41.75
2023-03-01T04:36:59.131Z,42.15
2023-03-01T04:39:25.552Z,44.80
2023-03-01T04:41:52.122Z,40.38
2023-03-01T04:44:18.714Z,47.85
2023-03-01T04:46:45.176Z,37.45
2023-03-01T04:49:11.784Z,49.70
2023-03-01T04:51:38.701Z,45.78
2023-03-01T04:54:09.579Z,38.05
2023-03-01T04:56:36.078Z,51.22
2023-03-01T04:59:06.596Z,49.33
2023-03-01T05:01:33.162Z,43.55
2023-03-01T05:04:03.885Z,44.83
2023-03-01T05:06:30.732Z,44.45
2023-03-01T05:08:57.481Z,50.63
2023-03-01T05:11:24.199Z,52.88
2023-03-01T05:13:55.819Z,50.92
2023-03-01T05:16:22.574Z,45.15
2023-03-01T05:18:51.557Z,49.22
2023-03-01T05:21:18.365Z,45.40
2023-03-01T05:23:45.108Z,56.08
2023-03-01T05:26:27.408Z,48.40
2023-03-01T05:28:59.389Z,51.47
2023-03-01T05:31:25.915Z,44.83
2023-03-01T05:33:53.720Z,61.92
2023-03-01T05:36:20.333Z,65.75
2023-03-01T05:38:47.096Z,47.85
2023-03-01T05:41:18.121Z,50.10
2023-03-01T05:43:45.861Z,47.50
2023-03-01T05:46:14.196Z,46.05
2023-03-01T05:48:41.002Z,58.45
2023-03-01T05:51:08.056Z,49.28
2023-03-01T05:53:34.572Z,71.55
2023-03-01T05:56:03.838Z,61.00
2023-03-01T05:58:30.359Z,51.90
2023-03-01T06:00:57.365Z,58.08
2023-03-01T06:03:23.920Z,51.95
2023-03-01T06:05:50.428Z,53.65
2023-03-01T06:08:16.903Z,67.75
2023-03-01T06:10:43.466Z,53.55
2023-03-01T06:13:10.009Z,52.45
2023-03-01T06:15:36.474Z,45.97
2023-03-01T06:18:02.970Z,47.03
2023-03-01T06:20:29.690Z,49.25
2023-03-01T06:22:56.673Z,47.55
2023-03-01T06:25:24.093Z,46.08
2023-03-01T06:27:50.823Z,47.03
2023-03-01T06:30:19.122Z,47.22
2023-03-01T06:32:45.876Z,54.28
2023-03-01T06:35:13.437Z,52.35
2023-03-01T06:37:40.427Z,53.28
2023-03-01T06:40:09.107Z,42.03
2023-03-01T06:42:36.419Z,48.72
2023-03-01T06:45:03.388Z,44.00
2023-03-01T06:47:30.629Z,50.92
2023-03-01T06:49:57.259Z,41.67
2023-03-01T06:52:23.808Z,39.90
2023-03-01T06:54:50.612Z,39.92
2023-03-01T06:57:17.365Z,39.42
2023-03-01T06:59:43.916Z,29.13
2023-03-01T07:02:11.316Z,32.40
2023-03-01T07:04:37.815Z,28.23
2023-03-01T07:07:04.393Z,30.13
2023-03-01T07:09:31.070Z,27.00
2023-03-01T07:11:57.801Z,28.73
2023-03-01T07:14:27.464Z,35.22
2023-03-01T07:16:54.276Z,32.95
2023-03-01T07:19:21.341Z,38.90
2023-03-01T07:21:48.211Z,26.85
2023-03-01T07:24:14.921Z,32.72
2023-03-01T07:26:41.395Z,39.63
2023-03-01T07:29:08.624Z,37.38
2023-03-01T07:31:35.229Z,37.15
2023-03-01T07:34:01.729Z,30.70
2023-03-01T07:36:28.435Z,30.92
2023-03-01T07:38:56.694Z,38.17
2023-03-01T07:41:23.254Z,31.10
2023-03-01T07:43:49.739Z,46.30
2023-03-01T07:46:16.237Z,27.20
2023-03-01T07:48:42.886Z,40.05
2023-03-01T07:51:10.752Z,29.83
2023-03-01T07:53:37.788Z,32.28
2023-03-01T07:56:07.439Z,36.88
2023-03-01T07:58:38.784Z,28.00
2023-03-01T08:01:06.120Z,31.73
2023-03-01T08:03:32.966Z,36.17
2023-03-01T08:06:03.379Z,28.95
2023-03-01T08:08:30.220Z,29.00
2023-03-01T08:11:00.733Z,29.10
2023-03-01T08:13:27.537Z,30.30
2023-03-01T08:15:54.376Z,29.92
2023-03-01T08:18:21.932Z,27.33
2023-03-01T08:20:49.060Z,25.20
2023-03-01T08:23:15.667Z,34.92
2023-03-01T08:25:42.481Z,24.50
2023-03-01T08:28:09.120Z,29.20
2023-03-01T08:30:35.726Z,30.58
2023-03-01T08:33:02.373Z,33.73
2023-03-01T08:35:28.912Z,28.70
2023-03-01T08:37:55.662Z,26.80
2023-03-01T08:40:22.240Z,30.70
2023-03-01T08:42:48.741Z,23.63
2023-03-01T08:45:19.167Z,32.43
2023-03-01T08:47:46.354Z,27.90
2023-03-01T08:50:12.863Z,26.20
2023-03-01T08:52:39.452Z,26.20
2023-03-01T08:55:06.302Z,25.60
2023-03-01T08:57:32.764Z,26.67
2023-03-01T08:59:59.553Z,35.37
2023-03-01T09:02:26.123Z,34.90
2023-03-01T09:04:52.627Z,30.87
2023-03-01T09:07:19.190Z,26.80
2023-03-01T09:09:45.764Z,26.13
2023-03-01T09:12:12.346Z,40.87
2023-03-01T09:14:39.824Z,32.67
2023-03-01T09:17:06.506Z,31.93
2023-03-01T09:19:33.101Z,27.53
2023-03-01T09:21:59.624Z,28.57
2023-03-01T09:24:26.482Z,33.87
2023-03-01T09:26:56.915Z,28.23
2023-03-01T09:29:23.806Z,32.07
2023-03-01T09:31:50.405Z,41.10
2023-03-01T09:34:20.326Z,35.13
2023-03-01T09:36:47.123Z,30.00
2023-03-01T09:39:13.882Z,37.00
2023-03-01T09:41:55.860Z,33.83
2023-03-01T09:44:28.162Z,26.37
2023-03-01T09:46:54.786Z,26.90
2023-03-01T09:49:31.935Z,38.00
2023-03-01T09:52:04.448Z,40.60
2023-03-01T09:54:31.455Z,25.53
2023-03-01T09:57:12.392Z,32.03
2023-03-01T09:59:56.224Z,25.20
2023-03-01T10:02:27.888Z,32.97
2023-03-01T10:05:14.078Z,35.73
2023-03-01T10:07:40.742Z,28.07
2023-03-01T10:10:08.770Z,33.60
2023-03-01T10:12:42.459Z,28.10
2023-03-01T10:15:15.449Z,22.40
2023-03-01T10:17:51.090Z,26.27
2023-03-01T10:20:22.979Z,28.83
2023-03-01T10:22:53.406Z,28.37
2023-03-01T10:25:38.693Z,27.73
2023-03-01T10:28:17.009Z,24.40
2023-03-01T10:30:44.887Z,29.83
2023-03-01T10:33:20.126Z,26.60
2023-03-01T10:35:46.724Z,30.63
2023-03-01T10:38:14.564Z,29.03
2023-03-01T10:40:52.282Z,30.00
2023-03-01T10:43:19.489Z,27.23
2023-03-01T10:45:46.187Z,16.03
2023-03-01T10:48:14.247Z,33.03
2023-03-01T10:50:42.533Z,27.13
2023-03-01T10:53:20.812Z,27.40
2023-03-01T10:55:47.523Z,28.87
2023-03-01T10:58:17.115Z,25.77
2023-03-01T11:00:54.436Z,40.60
2023-03-01T11:03:23.409Z,29.23
2023-03-01T11:06:00.823Z,34.33
2023-03-01T11:08:36.698Z,25.80
2023-03-01T11:11:08.181Z,25.43
2023-03-01T11:13:34.854Z,25.30
2023-03-01T11:16:02.775Z,23.57
2023-03-01T11:18:45.958Z,28.70
2023-03-01T11:21:13.940Z,25.87
2023-03-01T11:23:41.008Z,18.43
2023-03-01T11:26:11.487Z,18.97
2023-03-01T11:28:39.679Z,25.00
2023-03-01T11:31:09.806Z,26.33
2023-03-01T11:33:36.361Z,25.43
2023-03-01T11:36:06.779Z,27.20
2023-03-01T11:38:35.103Z,23.60
2023-03-01T11:41:09.580Z,23.70
2023-03-01T11:43:45.254Z,23.47
2023-03-01T11:46:12.902Z,18.83
2023-03-01T11:48:49.473Z,21.07
2023-03-01T11:51:32.254Z,15.43
2023-03-01T11:54:06.023Z,23.00
2023-03-01T11:56:35.898Z,23.13
2023-03-01T11:59:11.674Z,22.13
2023-03-01T12:01:56.674Z,19.93
2023-03-01T12:04:23.351Z,24.60
2023-03-01T12:07:10.408Z,16.23
2023-03-01T12:09:40.057Z,14.53
2023-03-01T12:12:06.536Z,22.50
2023-03-01T12:14:33.127Z,22.73
2023-03-01T12:17:07.609Z,30.67
2023-03-01T12:19:40.150Z,22.83
2023-03-01T12:22:25.444Z,25.97
2023-03-01T12:24:58.231Z,25.97
2023-03-01T12:27:30.397Z,27.40
2023-03-01T12:30:12.219Z,25.47
2023-03-01T12:32:47.084Z,21.47
2023-03-01T12:35:26.447Z,26.07
2023-03-01T12:37:52.974Z,23.60
2023-03-01T12:40:32.687Z,24.93
2023-03-01T12:43:08.271Z,28.67
2023-03-01T12:45:43.817Z,21.20
2023-03-01T12:48:16.366Z,25.07
2023-03-01T12:50:48.333Z,23.10
2023-03-01T12:53:41.198Z,22.80
2023-03-01T12:56:10.816Z,24.87
2023-03-01T12:58:50.337Z,20.57
2023-03-01T13:01:23.367Z,25.53
2023-03-01T13:04:09.016Z,26.80
2023-03-01T13:06:54.458Z,18.47
2023-03-01T13:09:27.305Z,27.43
2023-03-01T13:11:53.936Z,21.47
2023-03-01T13:14:26.581Z,20.20
2023-03-01T13:16:53.762Z,20.63
2023-03-01T13:19:22.377Z,22.90
2023-03-01T13:21:50.332Z,22.33
2023-03-01T13:24:35.772Z,24.50
2023-03-01T13:27:08.227Z,22.90
2023-03-01T13:29:53.710Z,17.87
2023-03-01T13:32:43.558Z,23.77
2023-03-01T13:35:20.167Z,18.60
2023-03-01T13:37:47.358Z,21.60
2023-03-01T13:40:19.153Z,21.73
2023-03-01T13:42:56.263Z,20.30
2023-03-01T13:45:26.499Z,27.33
2023-03-01T13:47:59.336Z,17.23
2023-03-01T13:50:28.055Z,15.23
2023-03-01T13:52:59.661Z,19.40
2023-03-01T13:55:41.823Z,18.90
2023-03-01T13:58:17.096Z,35.17
2023-03-01T14:00:43.769Z,18.47
2023-03-01T14:03:17.939Z,15.67
2023-03-01T14:06:13.028Z,21.73
2023-03-01T14:08:41.992Z,16.57
2023-03-01T14:11:34.736Z,15.40
2023-03-01T14:14:21.657Z,20.33
2023-03-01T14:17:06.990Z,14.17
2023-03-01T14:19:34.732Z,13.10
2023-03-01T14:22:05.372Z,17.10
2023-03-01T14:24:33.866Z,12.80
2023-03-01T14:27:01.946Z,18.80
2023-03-01T14:29:34.413Z,14.07
2023-03-01T14:32:20.823Z,14.50
2023-03-01T14:34:48.548Z,18.77
2023-03-01T14:37:32.329Z,11.73
2023-03-01T14:39:59.623Z,14.00
2023-03-01T14:42:28.292Z,16.77
2023-03-01T14:44:55.886Z,16.20
2023-03-01T14:47:32.797Z,17.27
2023-03-01T14:50:05.840Z,13.63
2023-03-01T14:52:37.723Z,16.20
2023-03-01T14:55:06.326Z,13.63
2023-03-01T14:57:33.322Z,12.20
2023-03-01T15:00:01.832Z,18.30
2023-03-01T15:02:29.671Z,16.73
2023-03-01T15:04:58.377Z,15.33
2023-03-01T15:07:30.535Z,27.03
2023-03-01T15:09:57.325Z,15.77
2023-03-01T15:12:29.975Z,13.63
2023-03-01T15:15:03.801Z,16.77
2023-03-01T15:17:40.141Z,14.30
2023-03-01T15:20:22.833Z,18.57
2023-03-01T15:22:49.779Z,17.90
2023-03-01T15:25:20.268Z,15.50
2023-03-01T15:27:47.864Z,17.60
2023-03-01T15:30:19.437Z,14.30
2023-03-01T15:32:46.905Z,14.60
2023-03-01T15:35:32.588Z,21.13
2023-03-01T15:38:01.416Z,15.40
2023-03-01T15:40:32.750Z,15.10
2023-03-01T15:42:59.991Z,15.30
2023-03-01T15:45:28.793Z,16.10
2023-03-01T15:48:00.211Z,15.40
2023-03-01T15:50:31.560Z,19.23
2023-03-01T15:52:59.073Z,23.23
2023-03-01T15:55:31.161Z,15.23
2023-03-01T15:58:10.621Z,16.97
2023-03-01T16:00:37.633Z,25.27
2023-03-01T16:03:04.377Z,27.47
2023-03-01T16:05:32.845Z,19.50
2023-03-01T16:07:59.853Z,22.10
2023-03-01T16:10:26.683Z,23.33
2023-03-01T16:12:53.705Z,19.50
2023-03-01T16:15:29.447Z,23.83
2023-03-01T16:17:59.281Z,23.07
2023-03-01T16:20:28.790Z,20.57
2023-03-01T16:22:56.127Z,17.63
2023-03-01T16:25:22.855Z,24.37
2023-03-01T16:27:50.472Z,22.47
2023-03-01T16:30:19.137Z,24.73
2023-03-01T16:32:46.812Z,24.70
2023-03-01T16:35:14.474Z,38.23
2023-03-01T16:37:41.498Z,34.10
2023-03-01T16:40:16.662Z,21.13
2023-03-01T16:42:43.227Z,18.30
2023-03-01T16:45:22.728Z,19.80
2023-03-01T16:47:51.099Z,22.63
2023-03-01T16:50:17.653Z,19.70
2023-03-01T16:52:44.286Z,26.87
2023-03-01T16:55:11.132Z,23.80
2023-03-01T16:57:38.464Z,37.27
2023-03-01T17:00:10.486Z,20.60
2023-03-01T17:02:37.460Z,21.53
2023-03-01T17:05:04.590Z,23.77
2023-03-01T17:07:34.332Z,19.87
2023-03-01T17:10:01.470Z,22.97
2023-03-01T17:12:28.837Z,22.57
2023-03-01T17:14:55.431Z,21.27
2023-03-01T17:17:22.544Z,33.00
2023-03-01T17:19:49.159Z,17.00
2023-03-01T17:22:16.358Z,21.20
2023-03-01T17:24:44.022Z,17.33
2023-03-01T17:27:12.544Z,16.13
2023-03-01T17:29:39.734Z,22.60
2023-03-01T17:32:07.027Z,23.20
2023-03-01T17:34:34.271Z,26.40
2023-03-01T17:37:00.975Z,22.60
2023-03-01T17:39:29.330Z,31.90
2023-03-01T17:41:57.690Z,21.40
2023-03-01T17:44:24.401Z,22.00
2023-03-01T17:46:50.958Z,23.03
2023-03-01T17:49:18.191Z,19.43
2023-03-01T17:51:45.587Z,22.50
2023-03-01T17:54:12.181Z,17.43
2023-03-01T17:56:39.001Z,19.13
2023-03-01T17:59:05.728Z,18.47
2023-03-01T18:01:34.302Z,20.53
2023-03-01T18:04:01.062Z,17.60
2023-03-01T18:06:28.502Z,24.73
2023-03-01T18:08:55.572Z,24.63
2023-03-01T18:11:23.594Z,16.73
2023-03-01T18:13:51.210Z,19.43
2023-03-01T18:16:19.158Z,17.93
2023-03-01T18:18:45.759Z,17.80
2023-03-01T18:21:12.964Z,21.03
2023-03-01T18:23:40.221Z,16.67
2023-03-01T18:26:11.340Z,17.97
2023-03-01T18:28:39.296Z,21.77
2023-03-01T18:31:08.542Z,23.53
2023-03-01T18:33:35.594Z,25.90
2023-03-01T18:36:02.334Z,19.03
2023-03-01T18:38:29.134Z,20.43
2023-03-01T18:40:56.370Z,34.03
2023-03-01T18:43:23.757Z,22.20
2023-03-01T18:45:55.799Z,15.53
2023-03-01T18:48:22.438Z,30.30
2023-03-01T18:50:48.990Z,18.20
2023-03-01T18:53:15.580Z,15.70
2023-03-01T18:55:42.388Z,17.53
2023-03-01T18:58:09.076Z,18.97
2023-03-01T19:00:35.690Z,18.30
2023-03-01T19:03:02.475Z,27.10
2023-03-01T19:05:29.256Z,15.60
2023-03-01T19:07:56.018Z,19.50
2023-03-01T19:10:23.217Z,23.30
2023-03-01T19:12:49.918Z,25.03
2023-03-01T19:15:16.725Z,18.10
2023-03-01T19:17:44.166Z,25.27
2023-03-01T19:20:11.451Z,17.13
2023-03-01T19:22:38.213Z,21.73
2023-03-01T19:25:05.235Z,21.73
2023-03-01T19:27:31.925Z,27.83
2023-03-01T19:29:58.582Z,16.43
2023-03-01T19:32:25.233Z,22.67
2023-03-01T19:34:51.947Z,26.73
2023-03-01T19:37:18.530Z,22.40
2023-03-01T19:39:45.273Z,19.60
2023-03-01T19:42:12.234Z,19.23
2023-03-01T19:44:39.821Z,19.53
2023-03-01T19:47:06.368Z,25.03
2023-03-01T19:49:32.925Z,19.83
2023-03-01T19:51:59.447Z,21.23
2023-03-01T19:54:26.160Z,17.50
2023-03-01T19:56:52.908Z,23.73
2023-03-01T19:59:24.298Z,28.73
2023-03-01T20:01:51.941Z,23.30
2023-03-01T20:04:18.685Z,22.57
2023-03-01T20:06:46.347Z,24.23
2023-03-01T20:09:21.553Z,30.50
2023-03-01T20:11:48.996Z,20.73
2023-03-01T20:14:15.678Z,27.50
2023-03-01T20:16:42.317Z,16.65
2023-03-01T20:19:09.198Z,19.77
2023-03-01T20:21:36.056Z,23.33
2023-03-01T20:24:02.706Z,15.07
2023-03-01T20:26:29.598Z,22.70
2023-03-01T20:28:57.264Z,28.17
2023-03-01T20:31:29.214Z,17.73
2023-03-01T20:33:57.296Z,20.20
2023-03-01T20:36:24.443Z,17.10
2023-03-01T20:38:55.825Z,18.90
2023-03-01T20:41:25.918Z,20.60
2023-03-01T20:43:56.865Z,23.43
2023-03-01T20:46:23.994Z,25.43
2023-03-01T20:48:51.824Z,30.93
2023-03-01T20:51:18.824Z,22.77
2023-03-01T20:53:45.520Z,30.67
2023-03-01T20:56:14.249Z,22.25
2023-03-01T20:58:41.370Z,21.80
2023-03-01T21:01:09.127Z,28.23
2023-03-01T21:03:36.178Z,40.57
2023-03-01T21:06:03.956Z,19.23
2023-03-01T21:08:30.587Z,16.03
2023-03-01T21:10:57.704Z,28.07
2023-03-01T21:13:24.763Z,18.73
2023-03-01T21:15:54.775Z,19.23
2023-03-01T21:18:21.778Z,20.40
2023-03-01T21:20:48.643Z,23.00
2023-03-01T21:23:15.562Z,23.27
2023-03-01T21:25:42.436Z,18.65
2023-03-01T21:28:09.047Z,18.63
2023-03-01T21:30:35.683Z,30.47
2023-03-01T21:33:02.179Z,40.40
2023-03-01T21:35:28.695Z,22.73
2023-03-01T21:37:55.459Z,27.93
2023-03-01T21:40:21.955Z,22.13
2023-03-01T21:42:49.740Z,29.75
2023-03-01T21:45:16.371Z,21.23
2023-03-01T21:47:42.978Z,23.53
2023-03-01T21:50:09.991Z,27.30
2023-03-01T21:52:36.477Z,25.35
2023-03-01T21:55:04.238Z,26.55
2023-03-01T21:57:30.742Z,24.13
2023-03-01T21:59:57.418Z,26.75
2023-03-01T22:02:23.873Z,23.20
2023-03-01T22:04:57.394Z,22.42
2023-03-01T22:07:23.849Z,27.35
2023-03-01T22:09:50.364Z,28.27
2023-03-01T22:12:16.999Z,22.17
2023-03-01T22:14:43.819Z,31.73
2023-03-01T22:17:10.382Z,26.23
2023-03-01T22:19:37.117Z,27.33
2023-03-01T22:22:03.838Z,21.52
2023-03-01T22:24:30.334Z,25.58
2023-03-01T22:26:57.041Z,26.17
2023-03-01T22:29:25.067Z,21.33
2023-03-01T22:31:52.271Z,31.67
2023-03-01T22:34:19.078Z,24.50
2023-03-01T22:36:46.426Z,30.58
2023-03-01T22:39:17.723Z,28.98
2023-03-01T22:41:45.896Z,30.23
2023-03-01T22:44:14.608Z,25.52
2023-03-01T22:46:41.968Z,24.15
2023-03-01T22:49:09.954Z,30.73
2023-03-01T22:51:37.700Z,36.22
2023-03-01T22:54:04.396Z,22.95
2023-03-01T22:56:32.740Z,27.75
2023-03-01T22:59:00.504Z,31.50
2023-03-01T23:01:27.040Z,34.90
2023-03-01T23:03:53.523Z,26.63
2023-03-01T23:06:20.946Z,34.10
2023-03-01T23:08:51.552Z,26.75
2023-03-01T23:11:18.786Z,32.53
2023-03-01T23:13:45.464Z,30.00
2023-03-01T23:16:12.106Z,31.02
2023-03-01T23:18:39.216Z,31.50
2023-03-01T23:21:17.494Z,33.33
2023-03-01T23:23:46.473Z,40.03
2023-03-01T23:26:13.560Z,33.80
2023-03-01T23:28:41.037Z,35.85
2023-03-01T23:31:09.142Z,35.38
2023-03-01T23:33:38.878Z,30.70
2023-03-01T23:36:16.416Z,30.13
2023-03-01T23:38:42.939Z,35.95
2023-03-01T23:41:14.031Z,31.10
2023-03-01T23:43:43.552Z,26.50
2023-03-01T23:46:14.480Z,30.10
2023-03-01T23:48:43.188Z,29.33
2023-03-01T23:51:10.099Z,31.83
2023-03-01T23:53:37.912Z,35.33
2023-03-01T23:56:04.794Z,27.33
2023-03-01T23:58:31.388Z,29.58
